Magrathea — WDG7506 — position and weather

sailwx.info

Track history (hours):
 
Tides and Currents Weather Stations Pressure Air Temp Water Temp Dewpoint Dewpoint Depression Visibility Wind Speed Wind Dir Waves Ship Positions

Magrathea

Owner: Quackenbush, Doug C, Poway, CA. More information available from US FCC via Universal Licensing System and Coast Guard Vessel Documentation Center.

Last reported at 2018-Mar-14 10:29 UTC. Time now 2018-Apr-19 17:39 UTC.
Position N 40°57' W 073°55'.
Warning: this ship's position is 36 days out of date.

Length 30 m; draft 3.5 m.

Type: Tug. MMSI: 367568020.

Date/timePositionNaut miles runAvg speedWind from/ knotsBaromVisibWave heightAir tempDewpointWater temp
2018-Mar-14 10:29N 40°57' W 073°55'4 8.5
2018-Mar-14 10:00N 40°53' W 073°56'4 8.7
2018-Mar-14 09:30N 40°49' W 073°58'4 8.0
2018-Mar-14 09:00N 40°46' W 074°01'3 7.0
2018-Mar-14 08:30N 40°42' W 074°02'4 7.3
2018-Mar-14 08:00N 40°39' W 074°05'3 6.7
2018-Mar-14 07:30N 40°39' W 074°09'3 5.9
2018-Mar-14 07:00N 40°37' W 074°12'5 0.2
2018-Mar-13 02:31N 40°33' W 074°15'0 6.7
2018-Mar-13 02:30N 40°33' W 074°15'3 6.3
2018-Mar-13 01:59N 40°35' W 074°12'3 6.7
2018-Mar-13 01:30N 40°38' W 074°12'3 6.2
2018-Mar-13 01:00N 40°39' W 074°07'3 5.7
2018-Mar-13 00:30N 40°39' W 074°04'3 6.2
2018-Mar-13 00:00N 40°36' W 074°02'3 5.4
2018-Mar-12 23:29N 40°34' W 073°60'3 6.3
2018-Mar-12 23:00N 40°34' W 073°56'5 7.1
2018-Mar-12 22:22N 40°35' W 073°50'3 6.4
2018-Mar-12 21:56N 40°37' W 073°47'1 2.6
2018-Mar-12 21:26N 40°37' W 073°45'0 0.1
2018-Mar-12 20:45N 40°37' W 073°45'0 0.0
2018-Mar-12 20:24N 40°37' W 073°45'0 0.0
2018-Mar-12 19:45N 40°37' W 073°45'0 0.0
2018-Mar-12 19:27N 40°37' W 073°45'0 0.0
2018-Mar-12 18:48N 40°37' W 073°45'0 0.0
2018-Mar-12 18:19N 40°37' W 073°45'0 0.0
2018-Mar-12 17:01N 40°37' W 073°45'0 0.1
2018-Mar-12 16:56N 40°37' W 073°45'0 0.0
2018-Mar-12 16:11N 40°37' W 073°45'0 0.0
2018-Mar-12 15:41N 40°37' W 073°45'0 2.4
2018-Mar-12 15:30N 40°37' W 073°46'1 2.8
2018-Mar-12 15:00N 40°38' W 073°45'0 0.0
2018-Mar-12 14:30N 40°38' W 073°45'0 0.0
2018-Mar-12 14:00N 40°38' W 073°45'0 0.0
2018-Mar-12 13:30N 40°38' W 073°45'0 0.0
2018-Mar-12 12:53N 40°38' W 073°45'0 0.0
2018-Mar-12 12:20N 40°38' W 073°45'0 0.1
2018-Mar-12 12:00N 40°38' W 073°45'1 0.4
2018-Mar-12 08:28N 40°37' W 073°45'0 0.0
2018-Mar-12 07:37N 40°37' W 073°45'0 0.0
2018-Mar-12 07:02N 40°37' W 073°45'0 0.0
2018-Mar-12 06:42N 40°37' W 073°45'0 0.0
2018-Mar-12 05:20N 40°37' W 073°45'0 0.0
2018-Mar-12 04:51N 40°37' W 073°45'0 0.0
2018-Mar-12 01:54N 40°37' W 073°45'0 0.0
2018-Mar-12 01:30N 40°37' W 073°45'0 0.0
2018-Mar-12 01:00N 40°37' W 073°45'0 0.0
2018-Mar-12 00:30N 40°37' W 073°45'0 0.0
2018-Mar-12 00:00N 40°37' W 073°45'0 0.0
2018-Mar-11 23:29N 40°37' W 073°45'0 0.0
2018-Mar-11 23:00N 40°37' W 073°45'0 0.0
2018-Mar-11 20:09N 40°37' W 073°45'0 0.0
2018-Mar-11 19:52N 40°37' W 073°45'0 0.0
2018-Mar-11 19:30N 40°37' W 073°45'0 0.1
2018-Mar-11 18:59N 40°37' W 073°45'2 3.0
2018-Mar-11 18:28N 40°36' W 073°47'3 6.5
2018-Mar-11 18:00N 40°35' W 073°51'4 7.4
2018-Mar-11 17:29N 40°34' W 073°56'3 6.2
2018-Mar-11 17:00N 40°34' W 073°60'3 5.9
2018-Mar-11 16:30N 40°36' W 074°02'3 6.3
2018-Mar-11 16:00N 40°39' W 074°02'0 0.1
2018-Mar-11 15:30N 40°39' W 074°02'0 0.0
2018-Mar-11 15:00N 40°39' W 074°02'0 0.0
2018-Mar-11 14:31N 40°39' W 074°02'0 0.0
2018-Mar-11 14:00N 40°39' W 074°02'0 0.0
2018-Mar-11 13:30N 40°39' W 074°02'0 0.0
2018-Mar-11 13:01N 40°39' W 074°02'0 0.1
2018-Mar-11 12:30N 40°39' W 074°02'0 0.7
2018-Mar-11 11:59N 40°39' W 074°02'2 4.8
2018-Mar-11 11:30N 40°37' W 074°02'3 5.0
2018-Mar-11 10:59N 40°34' W 074°01'3 5.1
2018-Mar-11 10:29N 40°34' W 073°58'3 6.8
2018-Mar-11 10:00N 40°34' W 073°53'3 6.8
2018-Mar-11 09:30N 40°35' W 073°49'3 5.5
2018-Mar-11 08:58N 40°37' W 073°46'0 0.6
2018-Mar-11 08:22N 40°37' W 073°45'0 0.0
2018-Mar-11 04:37N 40°37' W 073°45'0 0.0
2018-Mar-11 04:24N 40°37' W 073°45'0 0.0
2018-Mar-11 03:34N 40°37' W 073°45'0 0.0
2018-Mar-11 03:09N 40°37' W 073°45'0 0.0
2018-Mar-11 02:49N 40°37' W 073°45'0 0.0
2018-Mar-11 02:28N 40°37' W 073°45'0 0.0
2018-Mar-11 01:45N 40°37' W 073°45'0 0.0
2018-Mar-11 01:29N 40°37' W 073°45'0 0.0
2018-Mar-10 21:38N 40°37' W 073°45'0 0.0
2018-Mar-10 21:30N 40°37' W 073°45'0 0.0
2018-Mar-10 20:59N 40°37' W 073°45'0 0.0
2018-Mar-10 20:28N 40°37' W 073°45'0 0.0
2018-Mar-10 19:59N 40°37' W 073°45'0 0.0
2018-Mar-10 17:38N 40°37' W 073°45'0 0.0
2018-Mar-10 17:24N 40°37' W 073°45'0 0.0
2018-Mar-10 16:41N 40°37' W 073°45'0 0.2
2018-Mar-10 16:30N 40°37' W 073°45'3 5.6
2018-Mar-10 15:57N 40°36' W 073°49'4 8.2
2018-Mar-10 15:30N 40°34' W 073°54'4 8.2
2018-Mar-10 14:59N 40°34' W 073°59'3 5.9
2018-Mar-10 14:30N 40°32' W 074°02'  
2018-Mar-07 21:51N 40°38' W 073°45'0 0.0
2018-Mar-07 20:35N 40°38' W 073°45'0 0.7
2018-Mar-07 20:29N 40°38' W 073°45'1 0.3
2018-Mar-07 15:30N 40°37' W 073°46'0 0.0
2018-Mar-07 14:59N 40°37' W 073°46'0 1.0
2018-Mar-07 14:28N 40°37' W 073°46'1 3.2
2018-Mar-07 14:00N 40°38' W 073°45'1 0.2
2018-Mar-07 05:31N 40°37' W 073°46'0 0.0
2018-Mar-07 04:20N 40°37' W 073°46'0 0.5
2018-Mar-07 03:47N 40°37' W 073°45'0 0.1
2018-Mar-07 03:30N 40°37' W 073°45'0 0.2
2018-Mar-07 01:27N 40°37' W 073°46'0 0.0
2018-Mar-07 00:52N 40°37' W 073°46'0 0.0
2018-Mar-07 00:29N 40°37' W 073°46'0 0.0
2018-Mar-06 22:21N 40°37' W 073°46'0 0.0
2018-Mar-06 21:52N 40°37' W 073°46'0 0.0
2018-Mar-06 21:24N 40°37' W 073°46'0 0.0
2018-Mar-06 20:57N 40°37' W 073°46'0 0.0
2018-Mar-06 20:30N 40°37' W 073°46'0 0.0
2018-Mar-06 19:58N 40°37' W 073°46'0 0.0
2018-Mar-06 19:25N 40°37' W 073°46'0 0.0
2018-Mar-06 19:00N 40°37' W 073°46'0 0.0
2018-Mar-06 18:21N 40°37' W 073°46'0 0.5
2018-Mar-06 17:59N 40°37' W 073°46'3 6.7
2018-Mar-06 17:29N 40°35' W 073°50'3 6.7
2018-Mar-06 16:58N 40°34' W 073°54'2 3.8
2018-Mar-06 16:27N 40°34' W 073°57'2 5.1
2018-Mar-06 15:59N 40°34' W 073°60'2 4.0
2018-Mar-06 15:30N 40°35' W 074°02'2 3.2
2018-Mar-06 15:00N 40°37' W 074°03'3 6.8
2018-Mar-06 14:30N 40°40' W 074°02'4 7.5
2018-Mar-06 14:00N 40°44' W 074°01'4 8.7
2018-Mar-06 13:30N 40°48' W 073°59'5 9.4
2018-Mar-06 13:00N 40°52' W 073°57'  
Track history (hours):
 
Tides and Currents Weather Stations Pressure Air Temp Water Temp Dewpoint Dewpoint Depression Visibility Wind Speed Wind Dir Waves Ship Positions

Magrathea

Owner: Quackenbush, Doug C, Poway, CA. More information available from US FCC via Universal Licensing System and Coast Guard Vessel Documentation Center.

Last reported at 2018-Mar-14 10:29 UTC. Time now 2018-Apr-19 17:39 UTC.
Position N 40°57' W 073°55'.
Warning: this ship's position is 36 days out of date.

Length 30 m; draft 3.5 m.

Type: Tug. MMSI: 367568020.

Date/timePositionNaut miles runAvg speedWind from/ knotsBaromVisibWave heightAir tempDewpointWater temp
2018-Mar-14 10:29N 40°57' W 073°55'4 8.5
2018-Mar-14 10:00N 40°53' W 073°56'4 8.7
2018-Mar-14 09:30N 40°49' W 073°58'4 8.0
2018-Mar-14 09:00N 40°46' W 074°01'3 7.0
2018-Mar-14 08:30N 40°42' W 074°02'4 7.3
2018-Mar-14 08:00N 40°39' W 074°05'3 6.7
2018-Mar-14 07:30N 40°39' W 074°09'3 5.9
2018-Mar-14 07:00N 40°37' W 074°12'5 0.2
2018-Mar-13 02:31N 40°33' W 074°15'0 6.7
2018-Mar-13 02:30N 40°33' W 074°15'3 6.3
2018-Mar-13 01:59N 40°35' W 074°12'3 6.7
2018-Mar-13 01:30N 40°38' W 074°12'3 6.2
2018-Mar-13 01:00N 40°39' W 074°07'3 5.7
2018-Mar-13 00:30N 40°39' W 074°04'3 6.2
2018-Mar-13 00:00N 40°36' W 074°02'3 5.4
2018-Mar-12 23:29N 40°34' W 073°60'3 6.3
2018-Mar-12 23:00N 40°34' W 073°56'5 7.1
2018-Mar-12 22:22N 40°35' W 073°50'3 6.4
2018-Mar-12 21:56N 40°37' W 073°47'1 2.6
2018-Mar-12 21:26N 40°37' W 073°45'0 0.1
2018-Mar-12 20:45N 40°37' W 073°45'0 0.0
2018-Mar-12 20:24N 40°37' W 073°45'0 0.0
2018-Mar-12 19:45N 40°37' W 073°45'0 0.0
2018-Mar-12 19:27N 40°37' W 073°45'0 0.0
2018-Mar-12 18:48N 40°37' W 073°45'0 0.0
2018-Mar-12 18:19N 40°37' W 073°45'0 0.0
2018-Mar-12 17:01N 40°37' W 073°45'0 0.1
2018-Mar-12 16:56N 40°37' W 073°45'0 0.0
2018-Mar-12 16:11N 40°37' W 073°45'0 0.0
2018-Mar-12 15:41N 40°37' W 073°45'0 2.4
2018-Mar-12 15:30N 40°37' W 073°46'1 2.8
2018-Mar-12 15:00N 40°38' W 073°45'0 0.0
2018-Mar-12 14:30N 40°38' W 073°45'0 0.0
2018-Mar-12 14:00N 40°38' W 073°45'0 0.0
2018-Mar-12 13:30N 40°38' W 073°45'0 0.0
2018-Mar-12 12:53N 40°38' W 073°45'0 0.0
2018-Mar-12 12:20N 40°38' W 073°45'0 0.1
2018-Mar-12 12:00N 40°38' W 073°45'1 0.4
2018-Mar-12 08:28N 40°37' W 073°45'0 0.0
2018-Mar-12 07:37N 40°37' W 073°45'0 0.0
2018-Mar-12 07:02N 40°37' W 073°45'0 0.0
2018-Mar-12 06:42N 40°37' W 073°45'0 0.0
2018-Mar-12 05:20N 40°37' W 073°45'0 0.0
2018-Mar-12 04:51N 40°37' W 073°45'0 0.0
2018-Mar-12 01:54N 40°37' W 073°45'0 0.0
2018-Mar-12 01:30N 40°37' W 073°45'0 0.0
2018-Mar-12 01:00N 40°37' W 073°45'0 0.0
2018-Mar-12 00:30N 40°37' W 073°45'0 0.0
2018-Mar-12 00:00N 40°37' W 073°45'0 0.0
2018-Mar-11 23:29N 40°37' W 073°45'0 0.0
2018-Mar-11 23:00N 40°37' W 073°45'0 0.0
2018-Mar-11 20:09N 40°37' W 073°45'0 0.0
2018-Mar-11 19:52N 40°37' W 073°45'0 0.0
2018-Mar-11 19:30N 40°37' W 073°45'0 0.1
2018-Mar-11 18:59N 40°37' W 073°45'2 3.0
2018-Mar-11 18:28N 40°36' W 073°47'3 6.5
2018-Mar-11 18:00N 40°35' W 073°51'4 7.4
2018-Mar-11 17:29N 40°34' W 073°56'3 6.2
2018-Mar-11 17:00N 40°34' W 073°60'3 5.9
2018-Mar-11 16:30N 40°36' W 074°02'3 6.3
2018-Mar-11 16:00N 40°39' W 074°02'0 0.1
2018-Mar-11 15:30N 40°39' W 074°02'0 0.0
2018-Mar-11 15:00N 40°39' W 074°02'0 0.0
2018-Mar-11 14:31N 40°39' W 074°02'0 0.0
2018-Mar-11 14:00N 40°39' W 074°02'0 0.0
2018-Mar-11 13:30N 40°39' W 074°02'0 0.0
2018-Mar-11 13:01N 40°39' W 074°02'0 0.1
2018-Mar-11 12:30N 40°39' W 074°02'0 0.7
2018-Mar-11 11:59N 40°39' W 074°02'2 4.8
2018-Mar-11 11:30N 40°37' W 074°02'3 5.0
2018-Mar-11 10:59N 40°34' W 074°01'3 5.1
2018-Mar-11 10:29N 40°34' W 073°58'3 6.8
2018-Mar-11 10:00N 40°34' W 073°53'3 6.8
2018-Mar-11 09:30N 40°35' W 073°49'3 5.5
2018-Mar-11 08:58N 40°37' W 073°46'0 0.6
2018-Mar-11 08:22N 40°37' W 073°45'0 0.0
2018-Mar-11 04:37N 40°37' W 073°45'0 0.0
2018-Mar-11 04:24N 40°37' W 073°45'0 0.0
2018-Mar-11 03:34N 40°37' W 073°45'0 0.0
2018-Mar-11 03:09N 40°37' W 073°45'0 0.0
2018-Mar-11 02:49N 40°37' W 073°45'0 0.0
2018-Mar-11 02:28N 40°37' W 073°45'0 0.0
2018-Mar-11 01:45N 40°37' W 073°45'0 0.0
2018-Mar-11 01:29N 40°37' W 073°45'0 0.0
2018-Mar-10 21:38N 40°37' W 073°45'0 0.0
2018-Mar-10 21:30N 40°37' W 073°45'0 0.0
2018-Mar-10 20:59N 40°37' W 073°45'0 0.0
2018-Mar-10 20:28N 40°37' W 073°45'0 0.0
2018-Mar-10 19:59N 40°37' W 073°45'0 0.0
2018-Mar-10 17:38N 40°37' W 073°45'0 0.0
2018-Mar-10 17:24N 40°37' W 073°45'0 0.0
2018-Mar-10 16:41N 40°37' W 073°45'0 0.2
2018-Mar-10 16:30N 40°37' W 073°45'3 5.6
2018-Mar-10 15:57N 40°36' W 073°49'4 8.2
2018-Mar-10 15:30N 40°34' W 073°54'4 8.2
2018-Mar-10 14:59N 40°34' W 073°59'3 5.9
2018-Mar-10 14:30N 40°32' W 074°02'  
2018-Mar-07 21:51N 40°38' W 073°45'0 0.0
2018-Mar-07 20:35N 40°38' W 073°45'0 0.7
2018-Mar-07 20:29N 40°38' W 073°45'1 0.3
2018-Mar-07 15:30N 40°37' W 073°46'0 0.0
2018-Mar-07 14:59N 40°37' W 073°46'0 1.0
2018-Mar-07 14:28N 40°37' W 073°46'1 3.2
2018-Mar-07 14:00N 40°38' W 073°45'1 0.2
2018-Mar-07 05:31N 40°37' W 073°46'0 0.0
2018-Mar-07 04:20N 40°37' W 073°46'0 0.5
2018-Mar-07 03:47N 40°37' W 073°45'0 0.1
2018-Mar-07 03:30N 40°37' W 073°45'0 0.2
2018-Mar-07 01:27N 40°37' W 073°46'0 0.0
2018-Mar-07 00:52N 40°37' W 073°46'0 0.0
2018-Mar-07 00:29N 40°37' W 073°46'0 0.0
2018-Mar-06 22:21N 40°37' W 073°46'0 0.0
2018-Mar-06 21:52N 40°37' W 073°46'0 0.0
2018-Mar-06 21:24N 40°37' W 073°46'0 0.0
2018-Mar-06 20:57N 40°37' W 073°46'0 0.0
2018-Mar-06 20:30N 40°37' W 073°46'0 0.0
2018-Mar-06 19:58N 40°37' W 073°46'0 0.0
2018-Mar-06 19:25N 40°37' W 073°46'0 0.0
2018-Mar-06 19:00N 40°37' W 073°46'0 0.0
2018-Mar-06 18:21N 40°37' W 073°46'0 0.5
2018-Mar-06 17:59N 40°37' W 073°46'3 6.7
2018-Mar-06 17:29N 40°35' W 073°50'3 6.7
2018-Mar-06 16:58N 40°34' W 073°54'2 3.8
2018-Mar-06 16:27N 40°34' W 073°57'2 5.1
2018-Mar-06 15:59N 40°34' W 073°60'2 4.0
2018-Mar-06 15:30N 40°35' W 074°02'2 3.2
2018-Mar-06 15:00N 40°37' W 074°03'3 6.8
2018-Mar-06 14:30N 40°40' W 074°02'4 7.5
2018-Mar-06 14:00N 40°44' W 074°01'4 8.7
2018-Mar-06 13:30N 40°48' W 073°59'5 9.4
2018-Mar-06 13:00N 40°52' W 073°57'  

Dump ship's entire track history